createdAt,value
2023-03-18T00:02:52.795Z,17.48
2023-03-18T00:06:13.415Z,17.00
2023-03-18T00:09:15.385Z,16.25
2023-03-18T00:12:17.278Z,17.48
2023-03-18T00:15:20.081Z,17.45
2023-03-18T00:18:21.959Z,15.05
2023-03-18T00:21:24.692Z,15.45
2023-03-18T00:24:28.374Z,14.15
2023-03-18T00:27:30.658Z,16.33
2023-03-18T00:30:33.680Z,15.30
2023-03-18T00:33:40.742Z,14.32
2023-03-18T00:36:42.920Z,15.75
2023-03-18T00:39:46.286Z,16.42
2023-03-18T00:42:53.347Z,17.25
2023-03-18T00:45:58.347Z,17.30
2023-03-18T00:49:05.222Z,16.20
2023-03-18T00:52:07.230Z,14.20
2023-03-18T00:55:10.603Z,13.95
2023-03-18T00:58:12.870Z,13.07
2023-03-18T01:01:15.685Z,12.60
2023-03-18T01:04:17.960Z,14.27
2023-03-18T01:07:19.997Z,14.77
2023-03-18T01:10:24.308Z,14.35
2023-03-18T01:13:26.218Z,14.25
2023-03-18T01:16:29.913Z,15.27
2023-03-18T01:19:32.043Z,14.52
2023-03-18T01:22:33.870Z,16.92
2023-03-18T01:25:35.884Z,14.80
2023-03-18T01:28:38.546Z,14.93
2023-03-18T01:31:41.195Z,16.08
2023-03-18T01:34:48.804Z,15.13
2023-03-18T01:37:51.642Z,14.02
2023-03-18T01:40:54.738Z,17.38
2023-03-18T01:43:58.706Z,14.98
2023-03-18T01:47:02.166Z,15.07
2023-03-18T01:50:05.165Z,15.13
2023-03-18T01:53:11.968Z,15.18
2023-03-18T01:56:15.980Z,15.98
2023-03-18T01:59:20.086Z,16.05
2023-03-18T02:02:22.062Z,16.77
2023-03-18T02:08:28.060Z,15.60
2023-03-18T02:11:38.355Z,16.95
2023-03-18T02:14:41.206Z,16.95
2023-03-18T02:17:48.283Z,16.58
2023-03-18T02:21:12.140Z,20.92
2023-03-18T02:24:29.550Z,18.83
2023-03-18T02:27:36.202Z,16.85
2023-03-18T02:30:46.574Z,18.80
2023-03-18T02:33:49.807Z,17.25
2023-03-18T02:36:52.304Z,20.33
2023-03-18T02:39:55.360Z,17.52
2023-03-18T02:43:15.558Z,18.48
2023-03-18T02:46:32.716Z,17.27
2023-03-18T02:49:34.993Z,17.20
2023-03-18T02:52:37.181Z,17.00
2023-03-18T02:55:39.329Z,17.42
2023-03-18T02:58:41.647Z,18.37
2023-03-18T03:01:46.805Z,14.63
2023-03-18T03:04:49.345Z,16.38
2023-03-18T03:07:53.326Z,15.82
2023-03-18T03:10:55.532Z,12.83
2023-03-18T03:13:57.510Z,13.93
2023-03-18T03:20:06.202Z,12.45
2023-03-18T03:23:11.470Z,13.50
2023-03-18T03:26:14.855Z,13.38
2023-03-18T03:29:17.618Z,12.82
2023-03-18T03:32:19.864Z,12.10
2023-03-18T03:35:24.443Z,12.48
2023-03-18T03:38:26.780Z,10.07
2023-03-18T03:41:30.129Z,9.65
2023-03-18T03:44:32.001Z,11.90
2023-03-18T03:47:34.116Z,10.52
2023-03-18T03:50:37.231Z,10.97
2023-03-18T03:53:39.533Z,11.85
2023-03-18T03:56:42.361Z,13.55
2023-03-18T03:59:44.781Z,12.95
2023-03-18T04:03:13.589Z,14.32
2023-03-18T04:06:15.967Z,12.80
2023-03-18T04:09:25.997Z,11.00
2023-03-18T04:12:28.628Z,11.35
2023-03-18T04:15:34.727Z,10.23
2023-03-18T04:18:44.431Z,9.13
2023-03-18T04:21:46.460Z,8.05
2023-03-18T04:24:48.530Z,8.07
2023-03-18T04:27:52.683Z,6.40
2023-03-18T04:30:55.590Z,7.35
2023-03-18T04:33:57.669Z,7.30
2023-03-18T04:36:59.577Z,6.68
2023-03-18T04:40:05.671Z,7.07
2023-03-18T04:43:07.822Z,7.78
2023-03-18T04:46:11.130Z,7.70
2023-03-18T04:49:13.918Z,10.27
2023-03-18T04:52:16.563Z,9.55
2023-03-18T04:58:24.237Z,11.65
2023-03-18T05:01:38.240Z,13.38
2023-03-18T05:04:40.365Z,12.43
2023-03-18T05:07:43.375Z,12.00
2023-03-18T05:10:52.524Z,12.10
2023-03-18T05:13:54.554Z,12.25
2023-03-18T05:16:57.234Z,11.83
2023-03-18T05:23:02.074Z,10.52
2023-03-18T05:26:26.544Z,10.45
2023-03-18T05:29:28.868Z,10.43
2023-03-18T05:32:42.467Z,9.68
2023-03-18T05:35:47.671Z,10.13
2023-03-18T05:38:51.910Z,11.23
2023-03-18T05:41:54.106Z,10.23
2023-03-18T05:45:00.652Z,11.15
2023-03-18T05:48:03.647Z,10.30
2023-03-18T05:51:12.756Z,9.52
2023-03-18T05:54:16.694Z,9.15
2023-03-18T05:57:21.136Z,8.32
2023-03-18T06:00:25.306Z,9.38
2023-03-18T06:03:27.684Z,10.85
2023-03-18T06:06:29.629Z,10.50
2023-03-18T06:09:34.256Z,11.52
2023-03-18T06:12:37.357Z,10.55
2023-03-18T06:15:39.230Z,8.93
2023-03-18T06:18:41.783Z,8.05
2023-03-18T06:21:44.831Z,9.73
2023-03-18T06:24:48.402Z,8.32
2023-03-18T06:27:53.532Z,7.90
2023-03-18T06:30:59.111Z,8.15
2023-03-18T06:34:02.742Z,8.88
2023-03-18T06:37:08.468Z,8.10
2023-03-18T06:40:12.337Z,7.17
2023-03-18T06:43:15.750Z,11.00
2023-03-18T06:46:19.465Z,8.30
2023-03-18T06:49:21.911Z,11.13
2023-03-18T06:52:30.097Z,8.68
2023-03-18T06:55:38.240Z,11.63
2023-03-18T06:58:40.950Z,12.10
2023-03-18T07:01:49.484Z,9.95
2023-03-18T07:04:54.782Z,8.27
2023-03-18T07:07:57.003Z,6.82
2023-03-18T07:10:59.475Z,6.20
2023-03-18T07:14:02.298Z,7.50
2023-03-18T07:17:10.752Z,8.95
2023-03-18T07:20:15.429Z,9.65
2023-03-18T07:23:17.784Z,8.57
2023-03-18T07:26:20.428Z,8.05
2023-03-18T07:29:22.391Z,9.77
2023-03-18T07:32:24.212Z,8.07
2023-03-18T07:35:26.153Z,9.27
2023-03-18T07:38:28.101Z,10.48
2023-03-18T07:41:31.053Z,10.07
2023-03-18T07:44:32.923Z,9.48
2023-03-18T07:47:35.149Z,8.35
2023-03-18T07:50:37.356Z,7.82
2023-03-18T07:53:39.917Z,6.97
2023-03-18T07:56:42.496Z,7.20
2023-03-18T07:59:44.599Z,6.68
2023-03-18T08:02:46.692Z,7.33
2023-03-18T08:05:48.490Z,6.67
2023-03-18T08:08:50.391Z,7.55
2023-03-18T08:11:52.268Z,7.32
2023-03-18T08:14:54.297Z,7.63
2023-03-18T08:17:56.191Z,10.47
2023-03-18T08:20:58.500Z,6.93
2023-03-18T08:24:00.674Z,6.65
2023-03-18T08:27:02.804Z,8.07
2023-03-18T08:30:05.338Z,5.80
2023-03-18T08:33:07.585Z,6.50
2023-03-18T08:36:09.586Z,5.88
2023-03-18T08:39:12.439Z,6.70
2023-03-18T08:42:14.311Z,6.43
2023-03-18T08:45:16.240Z,7.60
2023-03-18T08:48:18.125Z,7.30
2023-03-18T08:51:22.267Z,7.55
2023-03-18T08:54:24.138Z,8.57
2023-03-18T08:57:27.997Z,8.00
2023-03-18T09:00:30.378Z,9.18
2023-03-18T09:03:33.837Z,7.88
2023-03-18T09:06:37.732Z,7.40
2023-03-18T09:09:44.494Z,8.40
2023-03-18T09:12:46.721Z,6.90
2023-03-18T09:15:49.109Z,7.77
2023-03-18T09:18:51.050Z,6.07
2023-03-18T09:21:53.029Z,6.38
2023-03-18T09:24:55.019Z,8.70
2023-03-18T09:27:56.869Z,9.93
2023-03-18T09:30:58.893Z,21.95
2023-03-18T09:34:01.042Z,7.63
2023-03-18T09:37:02.938Z,7.43
2023-03-18T09:40:07.486Z,9.20
2023-03-18T09:43:32.414Z,7.90
2023-03-18T09:46:40.858Z,8.10
2023-03-18T09:50:02.636Z,9.70
2023-03-18T09:53:52.241Z,10.32
2023-03-18T09:56:54.725Z,8.98
2023-03-18T10:00:26.102Z,8.57
2023-03-18T10:03:32.794Z,8.07
2023-03-18T10:06:37.686Z,8.07
2023-03-18T10:09:44.733Z,9.02
2023-03-18T10:12:53.262Z,9.15
2023-03-18T10:15:58.047Z,11.15
2023-03-18T10:19:00.213Z,11.88
2023-03-18T10:22:07.273Z,10.60
2023-03-18T10:25:40.024Z,11.05
2023-03-18T10:28:49.397Z,8.65
2023-03-18T10:32:17.350Z,9.15
2023-03-18T10:35:26.834Z,9.10
2023-03-18T10:38:31.953Z,11.90
2023-03-18T10:41:36.677Z,9.30
2023-03-18T10:44:41.917Z,11.02
2023-03-18T10:47:48.343Z,10.07
2023-03-18T10:51:01.725Z,9.82
2023-03-18T10:54:07.410Z,7.65
2023-03-18T10:57:16.014Z,10.43
2023-03-18T11:00:28.983Z,12.43
2023-03-18T11:03:35.443Z,8.60
2023-03-18T11:06:45.283Z,7.53
2023-03-18T11:09:47.452Z,10.13
2023-03-18T11:12:49.274Z,10.37
2023-03-18T11:15:55.029Z,7.95
2023-03-18T11:18:58.421Z,8.57
2023-03-18T11:22:21.120Z,7.95
2023-03-18T11:25:27.148Z,7.28
2023-03-18T11:28:30.153Z,6.00
2023-03-18T11:34:35.605Z,6.07
2023-03-18T11:37:41.228Z,5.28
2023-03-18T11:40:43.853Z,6.20
2023-03-18T11:44:02.113Z,7.68
2023-03-18T11:47:21.094Z,7.25
2023-03-18T11:50:26.307Z,6.10
2023-03-18T11:54:03.048Z,5.53
2023-03-18T11:57:33.785Z,7.72
2023-03-18T12:00:44.608Z,8.73
2023-03-18T12:04:01.466Z,7.22
2023-03-18T12:07:35.217Z,7.00
2023-03-18T12:10:48.384Z,7.88
2023-03-18T12:14:16.440Z,7.32
2023-03-18T12:17:52.864Z,11.48
2023-03-18T12:21:00.389Z,8.32
2023-03-18T12:24:12.027Z,8.32
2023-03-18T12:27:25.934Z,8.32
2023-03-18T12:30:53.232Z,10.05
2023-03-18T12:34:01.594Z,7.63
2023-03-18T12:37:33.201Z,7.78
2023-03-18T12:40:56.646Z,7.82
2023-03-18T12:47:23.023Z,13.88
2023-03-18T12:50:36.925Z,9.27
2023-03-18T12:53:49.196Z,7.80
2023-03-18T12:56:57.569Z,8.83
2023-03-18T13:00:06.801Z,9.00
2023-03-18T13:03:33.727Z,7.55
2023-03-18T13:06:45.861Z,11.18
2023-03-18T13:09:59.687Z,9.50
2023-03-18T13:13:07.846Z,7.68
2023-03-18T13:16:10.592Z,10.93
2023-03-18T13:19:12.442Z,10.88
2023-03-18T13:22:43.616Z,11.32
2023-03-18T13:26:17.041Z,8.10
2023-03-18T13:29:37.060Z,14.85
2023-03-18T13:32:50.939Z,21.42
2023-03-18T13:36:04.372Z,21.38
2023-03-18T13:39:21.319Z,12.60
2023-03-18T13:42:28.822Z,42.38
2023-03-18T13:45:39.210Z,11.18
2023-03-18T13:48:41.589Z,12.13
2023-03-18T13:51:51.408Z,10.57
2023-03-18T13:54:53.718Z,14.30
2023-03-18T13:58:04.373Z,11.05
2023-03-18T14:01:36.489Z,8.80
2023-03-18T14:04:47.978Z,8.43
2023-03-18T14:07:50.899Z,10.68
2023-03-18T14:14:42.024Z,9.35
2023-03-18T14:17:52.441Z,8.70
2023-03-18T14:20:58.744Z,8.73
2023-03-18T14:24:15.579Z,9.30
2023-03-18T14:27:19.203Z,11.00
2023-03-18T14:30:31.851Z,8.63
2023-03-18T14:33:39.865Z,8.95
2023-03-18T14:36:46.830Z,10.18
2023-03-18T14:39:52.999Z,12.68
2023-03-18T14:43:01.374Z,11.02
2023-03-18T14:46:08.417Z,10.88
2023-03-18T14:49:32.621Z,9.05
2023-03-18T14:52:41.243Z,8.82
2023-03-18T14:55:45.098Z,8.27
2023-03-18T14:58:47.738Z,8.98
2023-03-18T15:01:50.821Z,8.25
2023-03-18T15:04:55.444Z,9.63
2023-03-18T15:07:57.351Z,10.23
2023-03-18T15:11:00.574Z,8.98
2023-03-18T15:14:02.516Z,8.77
2023-03-18T15:17:19.380Z,8.27
2023-03-18T15:20:22.874Z,8.05
2023-03-18T15:23:32.543Z,10.82
2023-03-18T15:26:36.179Z,10.82
2023-03-18T15:30:00.598Z,11.02
2023-03-18T15:33:08.178Z,9.93
2023-03-18T15:36:15.405Z,11.52
2023-03-18T15:39:38.021Z,10.80
2023-03-18T15:42:39.924Z,9.40
2023-03-18T15:45:46.994Z,10.15
2023-03-18T15:48:56.183Z,9.95
2023-03-18T15:52:02.358Z,9.43
2023-03-18T15:55:29.199Z,9.45
2023-03-18T15:58:38.423Z,10.95
2023-03-18T16:01:40.472Z,9.15
2023-03-18T16:04:44.381Z,11.23
2023-03-18T16:07:46.919Z,10.73
2023-03-18T16:11:02.372Z,11.77
2023-03-18T16:14:04.735Z,10.50
2023-03-18T16:17:07.158Z,10.98
2023-03-18T16:20:24.211Z,11.02
2023-03-18T16:23:26.080Z,25.80
2023-03-18T16:26:28.172Z,29.15
2023-03-18T16:29:32.984Z,15.20
2023-03-18T16:32:35.751Z,10.73
2023-03-18T16:35:38.509Z,12.48
2023-03-18T16:38:41.173Z,11.40
2023-03-18T16:41:44.165Z,9.75
2023-03-18T16:47:50.104Z,8.88
2023-03-18T16:50:52.557Z,9.95
2023-03-18T16:53:54.482Z,9.60
2023-03-18T16:56:59.626Z,9.82
2023-03-18T17:00:05.792Z,11.75
2023-03-18T17:03:11.425Z,10.57
2023-03-18T17:06:13.899Z,9.13
2023-03-18T17:09:16.228Z,10.68
2023-03-18T17:12:18.240Z,9.32
2023-03-18T17:15:26.624Z,14.52
2023-03-18T17:18:28.578Z,18.85
2023-03-18T17:21:31.706Z,10.50
2023-03-18T17:24:33.560Z,8.68
2023-03-18T17:27:50.614Z,8.05
2023-03-18T17:30:52.563Z,9.80
2023-03-18T17:33:57.739Z,8.80
2023-03-18T17:36:59.749Z,8.35
2023-03-18T17:40:01.781Z,8.03
2023-03-18T17:43:04.080Z,8.23
2023-03-18T17:46:06.717Z,9.20
2023-03-18T17:49:12.009Z,9.05
2023-03-18T17:52:20.935Z,8.32
2023-03-18T17:55:24.725Z,9.85
2023-03-18T17:58:29.121Z,10.18
2023-03-18T18:01:31.125Z,9.10
2023-03-18T18:04:33.173Z,8.20
2023-03-18T18:07:36.244Z,7.93
2023-03-18T18:10:39.257Z,8.65
2023-03-18T18:13:41.443Z,8.45
2023-03-18T18:16:44.752Z,8.23
2023-03-18T18:19:46.707Z,8.20
2023-03-18T18:22:53.815Z,7.68
2023-03-18T18:26:00.160Z,7.90
2023-03-18T18:29:03.446Z,9.02
2023-03-18T18:32:05.656Z,8.50
2023-03-18T18:35:09.192Z,8.35
2023-03-18T18:38:12.776Z,8.52
2023-03-18T18:41:15.364Z,8.68
2023-03-18T18:44:19.097Z,8.82
2023-03-18T18:47:21.029Z,7.72
2023-03-18T18:50:28.713Z,8.27
2023-03-18T18:53:35.782Z,8.38
2023-03-18T18:56:38.139Z,8.23
2023-03-18T18:59:40.952Z,6.32
2023-03-18T19:02:47.184Z,9.38
2023-03-18T19:05:52.706Z,8.50
2023-03-18T19:08:58.195Z,10.07
2023-03-18T19:12:01.129Z,8.38
2023-03-18T19:15:04.366Z,7.43
2023-03-18T19:18:10.444Z,7.78
2023-03-18T19:21:13.624Z,6.97
2023-03-18T19:24:29.043Z,6.97
2023-03-18T19:27:33.200Z,6.00
2023-03-18T19:30:35.129Z,6.57
2023-03-18T19:33:37.304Z,7.05
2023-03-18T19:36:41.641Z,6.43
2023-03-18T19:39:45.995Z,7.70
2023-03-18T19:42:48.184Z,6.10
2023-03-18T19:45:52.070Z,7.03
2023-03-18T19:48:54.069Z,6.65
2023-03-18T19:51:56.181Z,6.70
2023-03-18T19:54:58.826Z,6.68
2023-03-18T19:58:50.560Z,6.45
2023-03-18T20:01:52.524Z,7.43
2023-03-18T20:04:58.484Z,7.60
2023-03-18T20:08:00.622Z,6.43
2023-03-18T20:11:02.528Z,6.47
2023-03-18T20:14:21.401Z,6.97
2023-03-18T20:17:44.785Z,8.60
2023-03-18T20:23:54.000Z,7.88
2023-03-18T20:26:56.007Z,8.65
2023-03-18T20:29:58.528Z,7.28
2023-03-18T20:33:00.785Z,8.13
2023-03-18T20:36:02.938Z,8.05
2023-03-18T20:39:06.050Z,9.03
2023-03-18T20:45:17.523Z,8.88
2023-03-18T20:48:20.455Z,10.38
2023-03-18T20:54:31.428Z,11.23
2023-03-18T20:57:33.280Z,7.10
2023-03-18T21:00:35.326Z,5.93
2023-03-18T21:03:37.316Z,6.47
2023-03-18T21:06:40.332Z,7.85
2023-03-18T21:12:44.296Z,5.65
2023-03-18T21:15:46.736Z,5.75
2023-03-18T21:18:50.025Z,4.63
2023-03-18T21:21:51.946Z,5.65
2023-03-18T21:24:53.902Z,6.72
2023-03-18T21:27:55.879Z,5.13
2023-03-18T21:30:58.687Z,4.85
2023-03-18T21:37:03.091Z,6.10
2023-03-18T21:40:05.402Z,6.82
2023-03-18T21:43:40.523Z,8.32
2023-03-18T21:46:42.398Z,7.60
2023-03-18T21:49:45.239Z,9.13
2023-03-18T21:52:47.868Z,8.38
2023-03-18T21:55:50.798Z,6.28
2023-03-18T22:01:54.377Z,7.10
2023-03-18T22:05:01.487Z,9.77
2023-03-18T22:08:03.363Z,7.65
2023-03-18T22:11:12.674Z,7.57
2023-03-18T22:14:14.561Z,6.82
2023-03-18T22:17:28.626Z,6.70
2023-03-18T22:20:30.768Z,5.50
2023-03-18T22:23:35.817Z,6.90
2023-03-18T22:26:38.637Z,4.63
2023-03-18T22:29:40.555Z,6.18
2023-03-18T22:32:44.868Z,3.30
2023-03-18T22:35:47.133Z,5.75
2023-03-18T22:38:49.642Z,6.68
2023-03-18T22:41:51.575Z,7.53
2023-03-18T22:44:53.949Z,5.10
2023-03-18T22:47:58.269Z,3.92
2023-03-18T22:51:00.785Z,5.15
2023-03-18T22:54:02.853Z,5.97
2023-03-18T22:57:04.703Z,4.83
2023-03-18T23:00:32.823Z,6.60
2023-03-18T23:03:37.235Z,6.22
2023-03-18T23:06:39.292Z,7.03
2023-03-18T23:09:54.282Z,6.83
2023-03-18T23:12:58.463Z,7.65
2023-03-18T23:16:02.328Z,11.17
2023-03-18T23:19:04.183Z,10.02
2023-03-18T23:22:06.102Z,7.93
2023-03-18T23:25:13.485Z,5.68
2023-03-18T23:28:15.802Z,6.55
2023-03-18T23:31:18.207Z,6.75
2023-03-18T23:34:20.127Z,7.15
2023-03-18T23:37:22.663Z,6.45
2023-03-18T23:40:25.745Z,8.07
2023-03-18T23:43:27.684Z,7.15
2023-03-18T23:46:29.575Z,6.75
2023-03-18T23:49:32.702Z,6.28
2023-03-18T23:52:34.811Z,7.05
2023-03-18T23:55:36.663Z,5.33
2023-03-18T23:58:38.614Z,5.05
